Wetterstation Vordersexau
Wetterdaten: Woche 11.03.13 - 17.03.13 (KW11)
Datum Zeit Temp. A. Feuchte A. Luftdruck Regen Wind Richtung Taupunkt Windchill Windben
11.03.2013 00:00 2,9 C 82 % 997,8 hPa 0,0 l/m 0,0 km/h S 0,1 C 2,9 C 0,0 km/h
11.03.2013 01:00 3,8 C 80 % 997,7 hPa 0,0 l/m 0,0 km/h S 0,7 C 3,8 C 0,0 km/h
11.03.2013 02:00 4,1 C 79 % 997,9 hPa 0,0 l/m 0,0 km/h W-NW 0,8 C 4,1 C 0,0 km/h
11.03.2013 03:00 4,7 C 76 % 997,6 hPa 0,0 l/m 0,0 km/h N-NW 0,8 C 4,7 C 0,0 km/h
11.03.2013 04:00 4,1 C 76 % 997,6 hPa 0,0 l/m 0,0 km/h N-NW 0,3 C 4,1 C 0,0 km/h
11.03.2013 05:00 3,8 C 77 % 997,6 hPa 0,0 l/m 0,0 km/h N-NW 0,1 C 3,8 C 0,0 km/h
11.03.2013 06:00 3,4 C 79 % 997,7 hPa 0,0 l/m 2,6 km/h N 0,1 C 3,4 C 1,4 km/h
11.03.2013 07:00 3,1 C 81 % 997,9 hPa 0,0 l/m 3,2 km/h N-NW 0,2 C 3,1 C 1,8 km/h
11.03.2013 08:00 2,7 C 81 % 998,0 hPa 0,5 l/m 3,9 km/h N -0,2 C 2,7 C 2,2 km/h
11.03.2013 09:00 2,9 C 81 % 998,2 hPa 0,5 l/m 5,8 km/h N -0,0 C 2,9 C 3,2 km/h
11.03.2013 10:00 3,5 C 81 % 998,5 hPa 0,0 l/m 0,0 km/h N 0,6 C 3,5 C 0,0 km/h
11.03.2013 11:00 3,2 C 83 % 998,8 hPa 0,5 l/m 5,2 km/h N 0,6 C 3,2 C 2,9 km/h
11.03.2013 12:00 4,7 C 83 % 998,5 hPa 0,0 l/m 0,0 km/h N-NO 2,1 C 4,7 C 0,0 km/h
11.03.2013 13:00 5,1 C 86 % 998,4 hPa 0,0 l/m 0,0 km/h N 3,0 C 5,1 C 0,0 km/h
11.03.2013 14:00 5,3 C 86 % 998,4 hPa 0,0 l/m 5,8 km/h N 3,2 C 5,3 C 3,2 km/h
11.03.2013 15:00 5,8 C 85 % 998,2 hPa 0,0 l/m 0,0 km/h O-NO 3,5 C 5,8 C 0,0 km/h
11.03.2013 16:00 5,8 C 85 % 997,9 hPa 0,0 l/m 0,0 km/h N-NO 3,5 C 5,8 C 0,0 km/h
11.03.2013 17:00 4,9 C 86 % 997,8 hPa 0,0 l/m 0,0 km/h N 2,8 C 4,9 C 0,0 km/h
11.03.2013 18:00 4,4 C 85 % 997,6 hPa 0,0 l/m 0,0 km/h N 2,1 C 4,4 C 0,0 km/h
11.03.2013 19:00 3,7 C 84 % 997,8 hPa 0,0 l/m 0,0 km/h N 1,3 C 3,7 C 0,0 km/h
11.03.2013 20:00 3,3 C 83 % 998,0 hPa 0,0 l/m 1,9 km/h N 0,7 C 3,3 C 1,1 km/h
11.03.2013 21:00 3,1 C 81 % 997,7 hPa 0,0 l/m 0,0 km/h N 0,2 C 3,1 C 0,0 km/h
11.03.2013 22:00 3,1 C 78 % 997,9 hPa 0,0 l/m 3,2 km/h N -0,4 C 3,1 C 1,8 km/h
11.03.2013 23:00 3,1 C 77 % 997,4 hPa 0,0 l/m 5,2 km/h N -0,5 C 3,1 C 2,9 km/h
12.03.2013 00:00 2,9 C 75 % 997,4 hPa 0,0 l/m 0,0 km/h N -1,1 C 2,9 C 0,0 km/h
12.03.2013 01:00 2,8 C 74 % 996,9 hPa 0,0 l/m 7,1 km/h N -1,4 C 2,1 C 4,0 km/h
12.03.2013 02:00 2,8 C 73 % 996,3 hPa 0,0 l/m 0,0 km/h N-NO -1,5 C 2,8 C 0,0 km/h
12.03.2013 03:00 2,8 C 72 % 995,6 hPa 0,0 l/m 0,0 km/h N -1,7 C 2,8 C 0,0 km/h
12.03.2013 04:00 2,6 C 71 % 995,2 hPa 0,0 l/m 0,0 km/h N -2,1 C 2,6 C 0,0 km/h
12.03.2013 05:00 2,4 C 70 % 995,2 hPa 0,5 l/m 0,0 km/h N-NW -2,5 C 2,4 C 0,0 km/h
12.03.2013 06:00 2,5 C 69 % 994,6 hPa 0,0 l/m 0,0 km/h N -2,6 C 2,5 C 0,0 km/h
12.03.2013 07:00 2,6 C 68 % 994,3 hPa 0,0 l/m 0,0 km/h N -2,7 C 2,6 C 0,0 km/h
12.03.2013 08:00 2,9 C 67 % 994,4 hPa 0,0 l/m 0,0 km/h N -2,6 C 2,9 C 0,0 km/h
12.03.2013 09:00 3,0 C 67 % 994,8 hPa 0,0 l/m 0,0 km/h N -2,5 C 3,0 C 0,0 km/h
12.03.2013 10:00 4,2 C 66 % 994,3 hPa 0,0 l/m 1,3 km/h N-NW -1,6 C 4,2 C 0,7 km/h
12.03.2013 11:00 5,1 C 71 % 994,6 hPa 0,0 l/m 0,0 km/h SW 0,3 C 5,1 C 0,0 km/h
12.03.2013 12:00 6,8 C 83 % 994,4 hPa 0,0 l/m 0,0 km/h S 4,1 C 6,8 C 0,0 km/h
12.03.2013 13:00 5,9 C 83 % 994,2 hPa 0,0 l/m 0,0 km/h S-SW 3,2 C 5,9 C 0,0 km/h
12.03.2013 14:00 6,6 C 86 % 993,9 hPa 0,0 l/m 0,0 km/h N-NW 4,4 C 6,6 C 0,0 km/h
12.03.2013 15:00 6,8 C 85 % 994,1 hPa 0,0 l/m 0,0 km/h N-NO 4,5 C 6,8 C 0,0 km/h
12.03.2013 16:00 5,8 C 85 % 994,4 hPa 1,0 l/m 0,0 km/h N-NO 3,5 C 5,8 C 0,0 km/h
12.03.2013 17:00 5,6 C 83 % 994,5 hPa 0,0 l/m 0,0 km/h N-NO 2,9 C 5,6 C 0,0 km/h
12.03.2013 18:00 4,3 C 82 % 995,2 hPa 0,0 l/m 0,0 km/h N 1,5 C 4,3 C 0,0 km/h
12.03.2013 19:00 3,4 C 81 % 996,0 hPa 0,0 l/m 0,0 km/h N 0,5 C 3,4 C 0,0 km/h
12.03.2013 20:00 3,3 C 80 % 996,4 hPa 0,0 l/m 0,0 km/h N-NO 0,2 C 3,3 C 0,0 km/h
12.03.2013 21:00 2,1 C 82 % 997,1 hPa 0,0 l/m 0,0 km/h N-NO -0,6 C 2,1 C 0,0 km/h
12.03.2013 22:00 1,5 C 82 % 997,5 hPa 0,0 l/m 0,0 km/h N-NO -1,2 C 1,5 C 0,0 km/h
12.03.2013 23:00 0,7 C 82 % 998,0 hPa 0,0 l/m 0,0 km/h N-NO -2,0 C 0,7 C 0,0 km/h
13.03.2013 00:00 0,4 C 82 % 998,0 hPa 0,0 l/m 0,0 km/h N-NO -2,3 C 0,4 C 0,0 km/h
13.03.2013 01:00 0,1 C 82 % 998,0 hPa 0,0 l/m 0,0 km/h N-NO -2,6 C 0,1 C 0,0 km/h
13.03.2013 02:00 -0,4 C 82 % 998,4 hPa 0,0 l/m 1,9 km/h N-NO -3,1 C -0,4 C 1,1 km/h
13.03.2013 03:00 -0,6 C 82 % 998,4 hPa 0,0 l/m 0,0 km/h N-NO -3,3 C -0,6 C 0,0 km/h
13.03.2013 04:00 -0,8 C 81 % 998,0 hPa 0,0 l/m 0,0 km/h N -3,6 C -0,8 C 0,0 km/h
13.03.2013 05:00 -0,8 C 81 % 998,3 hPa 0,0 l/m 0,0 km/h N -3,6 C -0,8 C 0,0 km/h
13.03.2013 06:00 -1,1 C 80 % 998,2 hPa 0,0 l/m 1,3 km/h N -4,1 C -1,1 C 0,7 km/h
13.03.2013 07:00 -1,2 C 79 % 998,7 hPa 0,0 l/m 0,0 km/h N -4,4 C -1,2 C 0,0 km/h
13.03.2013 08:00 -1,5 C 79 % 999,0 hPa 0,0 l/m 0,0 km/h N -4,7 C -1,5 C 0,0 km/h
13.03.2013 09:00 -1,2 C 79 % 999,3 hPa 0,0 l/m 0,0 km/h N-NO -4,4 C -1,2 C 0,0 km/h
13.03.2013 10:00 -1,2 C 80 % 999,9 hPa 0,0 l/m 0,0 km/h N-NO -4,2 C -1,2 C 0,0 km/h
13.03.2013 11:00 -0,7 C 83 % 1000,6 hPa 0,0 l/m 0,0 km/h N -3,2 C -0,7 C 0,0 km/h
13.03.2013 12:00 -0,8 C 86 % 1000,9 hPa 0,0 l/m 0,0 km/h N-NO -2,8 C -0,8 C 0,0 km/h
13.03.2013 13:00 -0,4 C 86 % 1001,5 hPa 0,0 l/m 0,0 km/h N-NO -2,4 C -0,4 C 0,0 km/h
13.03.2013 14:00 -0,1 C 86 % 1001,5 hPa 0,0 l/m 0,6 km/h NO -2,2 C -0,1 C 0,4 km/h
13.03.2013 15:00 0,0 C 86 % 1001,8 hPa 0,0 l/m 0,0 km/h N -2,1 C 0,0 C 0,0 km/h
13.03.2013 16:00 -0,4 C 86 % 1002,2 hPa 0,0 l/m 0,0 km/h O-SO -2,4 C -0,4 C 0,0 km/h
13.03.2013 17:00 -1,1 C 85 % 1002,7 hPa 0,0 l/m 0,0 km/h O-NO -3,3 C -1,1 C 0,0 km/h
13.03.2013 18:00 -1,6 C 84 % 1003,8 hPa 0,0 l/m 0,0 km/h O-SO -3,9 C -1,6 C 0,0 km/h
13.03.2013 19:00 -1,8 C 85 % 1004,6 hPa 0,0 l/m 0,0 km/h O-NO -4,0 C -1,8 C 0,0 km/h
13.03.2013 20:00 -1,9 C 85 % 1005,2 hPa 0,0 l/m 0,0 km/h O-SO -4,1 C -1,9 C 0,0 km/h
13.03.2013 21:00 -1,9 C 85 % 1005,5 hPa 0,0 l/m 0,0 km/h N-NO -4,1 C -1,9 C 0,0 km/h
13.03.2013 22:00 -2,1 C 86 % 1006,1 hPa 0,0 l/m 0,0 km/h O-SO -4,1 C -2,1 C 0,0 km/h
13.03.2013 23:00 -3,7 C 86 % 1006,5 hPa 0,0 l/m 0,0 km/h O-SO -5,7 C -3,7 C 0,0 km/h
14.03.2013 00:00 -5,4 C 87 % 1006,6 hPa 0,0 l/m 0,0 km/h O-SO -7,2 C -5,4 C 0,0 km/h
14.03.2013 01:00 -5,7 C 87 % 1007,2 hPa 0,0 l/m 0,0 km/h SO -7,5 C -5,7 C 0,0 km/h
14.03.2013 02:00 -6,2 C 87 % 1007,3 hPa 0,0 l/m 0,0 km/h O-SO -8,0 C -6,2 C 0,0 km/h
14.03.2013 03:00 -6,5 C 87 % 1007,3 hPa 0,0 l/m 0,0 km/h SO -8,3 C -6,5 C 0,0 km/h
14.03.2013 04:00 -6,7 C 87 % 1007,2 hPa 0,0 l/m 0,0 km/h S-SO -8,5 C -6,7 C 0,0 km/h
14.03.2013 05:00 -7,4 C 87 % 1007,4 hPa 0,0 l/m 0,0 km/h S-SO -9,2 C -7,4 C 0,0 km/h
14.03.2013 06:00 -6,8 C 87 % 1007,6 hPa 0,0 l/m 0,0 km/h O-SO -8,6 C -6,8 C 0,0 km/h
14.03.2013 07:00 -6,1 C 87 % 1008,0 hPa 0,0 l/m 0,0 km/h S -7,9 C -6,1 C 0,0 km/h
14.03.2013 08:00 -2,2 C 81 % 1008,2 hPa 0,0 l/m 0,0 km/h SW -5,0 C -2,2 C 0,0 km/h
14.03.2013 09:00 1,8 C 86 % 1008,4 hPa 0,0 l/m 0,0 km/h N -0,3 C 1,8 C 0,0 km/h
14.03.2013 10:00 4,6 C 71 % 1008,5 hPa 0,0 l/m 1,3 km/h SW -0,2 C 4,6 C 0,7 km/h
14.03.2013 11:00 7,0 C 62 % 1008,5 hPa 0,5 l/m 1,9 km/h O-SO 0,2 C 7,0 C 1,1 km/h
14.03.2013 12:00 2,9 C 65 % 1008,4 hPa 1,0 l/m 0,0 km/h O-NO -3,0 C 2,9 C 0,0 km/h
14.03.2013 13:00 6,3 C 55 % 1007,9 hPa 0,5 l/m 0,0 km/h O -2,1 C 6,3 C 0,0 km/h
14.03.2013 14:00 6,5 C 53 % 1007,0 hPa 0,0 l/m 0,0 km/h O-SO -2,4 C 6,5 C 0,0 km/h
14.03.2013 15:00 4,1 C 55 % 1007,1 hPa 0,0 l/m 1,9 km/h O-NO -4,1 C 4,1 C 1,1 km/h
14.03.2013 16:00 2,8 C 61 % 1007,6 hPa 0,0 l/m 3,9 km/h NO -4,0 C 2,8 C 2,2 km/h
14.03.2013 17:00 3,8 C 59 % 1007,7 hPa 0,0 l/m 0,0 km/h O-SO -3,5 C 3,8 C 0,0 km/h
14.03.2013 18:00 0,9 C 59 % 1008,2 hPa 0,0 l/m 0,0 km/h NO -6,2 C 0,9 C 0,0 km/h
14.03.2013 19:00 -1,5 C 70 % 1009,0 hPa 0,0 l/m 0,0 km/h SO -6,2 C -1,5 C 0,0 km/h
14.03.2013 20:00 -2,8 C 75 % 1009,4 hPa 0,0 l/m 0,0 km/h O-SO -6,6 C -2,8 C 0,0 km/h
14.03.2013 21:00 -3,9 C 79 % 1009,9 hPa 0,0 l/m 0,0 km/h S -7,0 C -3,9 C 0,0 km/h
14.03.2013 22:00 -3,4 C 82 % 1010,0 hPa 0,0 l/m 0,0 km/h O-SO -6,0 C -3,4 C 0,0 km/h
14.03.2013 23:00 -3,4 C 84 % 1010,1 hPa 0,0 l/m 0,0 km/h O-SO -5,7 C -3,4 C 0,0 km/h
15.03.2013 00:00 -3,1 C 85 % 1010,2 hPa 0,0 l/m 0,0 km/h N-NO -5,3 C -3,1 C 0,0 km/h
15.03.2013 01:00 -2,4 C 85 % 1010,4 hPa 0,0 l/m 0,0 km/h N-NO -4,6 C -2,4 C 0,0 km/h
15.03.2013 02:00 -2,2 C 86 % 1010,5 hPa 0,0 l/m 0,0 km/h NO -4,2 C -2,2 C 0,0 km/h
15.03.2013 03:00 -2,6 C 86 % 1010,7 hPa 0,0 l/m 0,0 km/h N-NO -4,6 C -2,6 C 0,0 km/h
15.03.2013 04:00 -2,2 C 86 % 1010,9 hPa 0,0 l/m 0,0 km/h O -4,2 C -2,2 C 0,0 km/h
15.03.2013 05:00 -2,5 C 86 % 1011,4 hPa 0,0 l/m 0,0 km/h NO -4,5 C -2,5 C 0,0 km/h
15.03.2013 06:00 -3,5 C 86 % 1012,1 hPa 0,0 l/m 0,0 km/h N-NO -5,5 C -3,5 C 0,0 km/h
15.03.2013 07:00 -3,7 C 86 % 1013,0 hPa 0,0 l/m 0,0 km/h N -5,7 C -3,7 C 0,0 km/h
15.03.2013 08:00 -2,4 C 86 % 1013,7 hPa 0,0 l/m 0,0 km/h N -4,4 C -2,4 C 0,0 km/h
15.03.2013 09:00 -1,0 C 83 % 1014,4 hPa 0,0 l/m 9,1 km/h NW -3,5 C -3,8 C 5,0 km/h
15.03.2013 10:00 4,9 C 70 % 1015,0 hPa 0,0 l/m 0,0 km/h N-NW -0,1 C 4,9 C 0,0 km/h
15.03.2013 11:00 5,9 C 54 % 1015,5 hPa 0,0 l/m 5,2 km/h N -2,7 C 5,9 C 2,9 km/h
15.03.2013 12:00 6,4 C 52 % 1015,4 hPa 0,0 l/m 1,9 km/h NW -2,7 C 6,4 C 1,1 km/h
15.03.2013 13:00 5,8 C 48 % 1015,3 hPa 0,0 l/m 10,4 km/h O-NO -4,3 C 2,7 C 5,8 km/h
15.03.2013 14:00 6,7 C 44 % 1015,1 hPa 0,0 l/m 0,0 km/h SO -4,7 C 6,7 C 0,0 km/h
15.03.2013 15:00 11,9 C 33 % 1014,9 hPa 0,0 l/m 0,0 km/h S -3,8 C 11,9 C 0,0 km/h
15.03.2013 16:00 10,6 C 34 % 1014,6 hPa 0,5 l/m 3,9 km/h W-NW -4,6 C 10,6 C 2,2 km/h
15.03.2013 17:00 11,4 C 32 % 1014,8 hPa 0,0 l/m 0,0 km/h S-SW -4,7 C 11,4 C 0,0 km/h
15.03.2013 18:00 4,3 C 42 % 1014,8 hPa 0,0 l/m 0,0 km/h SO -7,5 C 4,3 C 0,0 km/h
15.03.2013 19:00 -1,6 C 62 % 1015,5 hPa 0,0 l/m 0,0 km/h SO -7,9 C -1,6 C 0,0 km/h
15.03.2013 20:00 -2,5 C 68 % 1015,8 hPa 0,0 l/m 0,0 km/h SO -7,6 C -2,5 C 0,0 km/h
15.03.2013 21:00 -2,8 C 72 % 1016,0 hPa 0,0 l/m 0,0 km/h SO -7,1 C -2,8 C 0,0 km/h
15.03.2013 22:00 -3,1 C 74 % 1016,2 hPa 0,0 l/m 1,3 km/h SO -7,1 C -3,1 C 0,7 km/h
15.03.2013 23:00 -3,4 C 75 % 1016,0 hPa 0,0 l/m 0,0 km/h O-SO -7,2 C -3,4 C 0,0 km/h
16.03.2013 00:00 -3,5 C 76 % 1015,6 hPa 0,0 l/m 0,0 km/h O-SO -7,1 C -3,5 C 0,0 km/h
16.03.2013 01:00 -3,9 C 78 % 1015,5 hPa 0,0 l/m 0,0 km/h S-SO -7,2 C -3,9 C 0,0 km/h
16.03.2013 02:00 -4,1 C 79 % 1015,4 hPa 0,0 l/m 0,0 km/h S -7,2 C -4,1 C 0,0 km/h
16.03.2013 03:00 -4,5 C 80 % 1014,8 hPa 0,0 l/m 0,0 km/h S -7,4 C -4,5 C 0,0 km/h
16.03.2013 04:00 -4,6 C 80 % 1014,6 hPa 0,0 l/m 0,0 km/h S-SO -7,5 C -4,6 C 0,0 km/h
16.03.2013 05:00 -4,8 C 80 % 1014,1 hPa 0,0 l/m 0,0 km/h S -7,7 C -4,8 C 0,0 km/h
16.03.2013 06:00 -5,0 C 80 % 1013,7 hPa 0,0 l/m 0,0 km/h SO -7,9 C -5,0 C 0,0 km/h
16.03.2013 07:00 -4,7 C 79 % 1013,5 hPa 0,0 l/m 0,0 km/h N-NO -7,8 C -4,7 C 0,0 km/h
16.03.2013 08:00 2,1 C 70 % 1013,2 hPa 0,0 l/m 0,0 km/h N-NO -2,8 C 2,1 C 0,0 km/h
16.03.2013 09:00 4,2 C 59 % 1013,2 hPa 0,0 l/m 0,0 km/h N-NW -3,1 C 4,2 C 0,0 km/h
16.03.2013 10:00 9,0 C 45 % 1012,3 hPa 0,0 l/m 1,9 km/h W -2,3 C 9,0 C 1,1 km/h
16.03.2013 11:00 11,8 C 41 % 1011,0 hPa 0,0 l/m 0,0 km/h NO -1,0 C 11,8 C 0,0 km/h
16.03.2013 12:00 11,4 C 42 % 1010,1 hPa 0,0 l/m 3,2 km/h NW -1,0 C 11,4 C 1,8 km/h
16.03.2013 13:00 10,1 C 43 % 1009,2 hPa 0,0 l/m 1,3 km/h NW -1,9 C 10,1 C 0,7 km/h
16.03.2013 14:00 9,9 C 44 % 1008,4 hPa 0,0 l/m 18,8 km/h NW -1,8 C 3,6 C 10,4 km/h
16.03.2013 15:00 8,4 C 48 % 1007,3 hPa 0,0 l/m 1,9 km/h N-NW -2,0 C 8,4 C 1,1 km/h
16.03.2013 16:00 7,5 C 52 % 1006,9 hPa 0,0 l/m 5,2 km/h S-SO -1,7 C 7,5 C 2,9 km/h
16.03.2013 17:00 6,6 C 52 % 1005,7 hPa 0,0 l/m 0,0 km/h NO -2,5 C 6,6 C 0,0 km/h
16.03.2013 18:00 4,9 C 58 % 1006,0 hPa 0,0 l/m 0,0 km/h O-SO -2,7 C 4,9 C 0,0 km/h
16.03.2013 19:00 3,0 C 67 % 1006,0 hPa 0,0 l/m 0,0 km/h O-SO -2,5 C 3,0 C 0,0 km/h
16.03.2013 20:00 2,2 C 69 % 1005,8 hPa 0,0 l/m 0,0 km/h O-SO -2,9 C 2,2 C 0,0 km/h
16.03.2013 21:00 1,9 C 71 % 1005,5 hPa 0,0 l/m 0,0 km/h O-SO -2,8 C 1,9 C 0,0 km/h
16.03.2013 22:00 1,1 C 73 % 1005,3 hPa 0,0 l/m 0,0 km/h S -3,2 C 1,1 C 0,0 km/h
16.03.2013 23:00 0,1 C 76 % 1005,2 hPa 0,0 l/m 0,0 km/h O-SO -3,6 C 0,1 C 0,0 km/h
17.03.2013 00:00 0,1 C 75 % 1005,5 hPa 0,0 l/m 0,0 km/h O-SO -3,8 C 0,1 C 0,0 km/h
17.03.2013 01:00 2,9 C 71 % 1004,3 hPa 0,0 l/m 1,3 km/h W-SW -1,8 C 2,9 C 0,7 km/h
17.03.2013 02:00 6,1 C 63 % 1003,6 hPa 0,0 l/m 0,0 km/h W-SW -0,4 C 6,1 C 0,0 km/h
17.03.2013 03:00 6,9 C 55 % 1002,7 hPa 0,0 l/m 22,0 km/h S-SW -1,5 C -1,4 C 12,2 km/h
17.03.2013 04:00 6,8 C 54 % 1002,2 hPa 0,0 l/m 38,9 km/h SW -1,8 C -5,7 C 21,6 km/h
17.03.2013 05:00 6,1 C 58 % 1002,4 hPa 0,0 l/m 20,7 km/h S-SW -1,5 C -2,0 C 11,5 km/h
17.03.2013 06:00 5,3 C 68 % 1002,2 hPa 0,0 l/m 22,0 km/h S-SW -0,1 C -3,5 C 12,2 km/h
17.03.2013 07:00 3,8 C 77 % 1001,7 hPa 0,0 l/m 8,4 km/h SW 0,1 C 2,0 C 4,7 km/h
17.03.2013 08:00 4,6 C 77 % 1002,0 hPa 0,0 l/m 22,0 km/h S-SW 0,9 C -4,5 C 12,2 km/h
17.03.2013 09:00 4,3 C 81 % 1001,4 hPa 0,0 l/m 12,3 km/h S-SO 1,3 C -0,2 C 6,8 km/h
17.03.2013 10:00 5,6 C 80 % 1001,0 hPa 0,5 l/m 0,0 km/h O-SO 2,4 C 5,6 C 0,0 km/h
17.03.2013 11:00 6,4 C 79 % 999,9 hPa 0,0 l/m 0,0 km/h W-SW 3,0 C 6,4 C 0,0 km/h
17.03.2013 12:00 8,4 C 75 % 999,2 hPa 0,0 l/m 0,0 km/h N 4,2 C 8,4 C 0,0 km/h
17.03.2013 13:00 7,1 C 82 % 998,4 hPa 0,0 l/m 5,2 km/h N-NO 4,2 C 7,1 C 2,9 km/h
17.03.2013 14:00 6,2 C 84 % 998,3 hPa 0,0 l/m 7,8 km/h N 3,7 C 5,0 C 4,3 km/h
17.03.2013 15:00 5,8 C 84 % 998,0 hPa 0,5 l/m 0,0 km/h O 3,3 C 5,8 C 0,0 km/h
17.03.2013 16:00 5,6 C 84 % 997,0 hPa 0,5 l/m 0,0 km/h N-NO 3,1 C 5,6 C 0,0 km/h
17.03.2013 17:00 5,2 C 85 % 995,8 hPa 1,0 l/m 0,0 km/h O-SO 2,9 C 5,2 C 0,0 km/h
17.03.2013 18:00 5,0 C 85 % 995,6 hPa 0,0 l/m 1,3 km/h W-SW 2,7 C 5,0 C 0,7 km/h
17.03.2013 19:00 5,7 C 85 % 995,5 hPa 0,5 l/m 8,4 km/h SW 3,4 C 4,0 C 4,7 km/h
17.03.2013 20:00 6,2 C 84 % 995,4 hPa 0,0 l/m 1,9 km/h W-SW 3,7 C 6,2 C 1,1 km/h
17.03.2013 21:00 6,1 C 84 % 995,7 hPa 0,5 l/m 0,0 km/h O-SO 3,6 C 6,1 C 0,0 km/h
17.03.2013 22:00 5,3 C 85 % 995,4 hPa 0,0 l/m 0,0 km/h O-SO 3,0 C 5,3 C 0,0 km/h
17.03.2013 23:00 5,0 C 85 % 996,0 hPa 0,5 l/m 0,0 km/h N-NW 2,7 C 5,0 C 0,0 km/h
Min-Datum _ 14.03.13 15.03.13 12.03.13 - 11.03.13 - 14.03.13 14.03.13 11.03.13
_ Min-Zeit 05:19 17:19 14:19 - 00:19 - 05:19 05:19 00:19
Minimum _ -7,4 C 32 % 993,9 hPa - 0,0 km/h - -9,2 C -7,4 C 0,0 km/h
Max-Datum _ 15.03.13 14.03.13 15.03.13 12.03.13 17.03.13 - 12.03.13 15.03.13 17.03.13
_ Max-Zeit 15:19 00:19 22:19 16:19 04:19 - 15:19 15:19 04:19
Maximum _ 11,9 C 87 % 1016,2 hPa 1,0 l/m 38,9 km/h
SW
- 4,5 C 11,9 C 21,6 km/h
SW
Durchschnitt _ 2,1 C 75 % 1003,8 hPa #9,8 l/m 1,8 km/h N -2,2 C 1,7 C 1,0 km/h
www.sexauwetter.de